createdAt,value
2019-03-03T00:01:39.340Z,11.40
2019-03-03T00:04:05.533Z,10.00
2019-03-03T00:06:32.815Z,11.63
2019-03-03T00:08:59.001Z,9.50
2019-03-03T00:11:25.165Z,12.30
2019-03-03T00:13:51.454Z,11.00
2019-03-03T00:16:17.713Z,10.72
2019-03-03T00:18:43.907Z,11.38
2019-03-03T00:21:11.964Z,9.23
2019-03-03T00:23:40.100Z,9.05
2019-03-03T00:26:06.366Z,10.05
2019-03-03T00:28:32.915Z,11.18
2019-03-03T00:30:59.103Z,9.68
2019-03-03T00:33:25.265Z,9.30
2019-03-03T00:35:51.452Z,8.70
2019-03-03T00:38:19.511Z,12.40
2019-03-03T00:41:05.948Z,11.57
2019-03-03T00:43:39.606Z,10.15
2019-03-03T00:46:19.576Z,11.30
2019-03-03T00:48:47.661Z,13.60
2019-03-03T00:51:30.890Z,11.03
2019-03-03T00:53:58.973Z,10.82
2019-03-03T00:56:30.732Z,12.30
2019-03-03T00:58:58.795Z,11.68
2019-03-03T01:01:29.804Z,13.10
2019-03-03T01:04:04.053Z,11.50
2019-03-03T01:06:48.765Z,11.18
2019-03-03T01:09:44.103Z,10.58
2019-03-03T01:12:24.437Z,12.00
2019-03-03T01:15:01.620Z,9.30
2019-03-03T01:17:46.233Z,12.55
2019-03-03T01:20:14.305Z,8.88
2019-03-03T01:22:54.193Z,10.28
2019-03-03T01:25:20.353Z,9.30
2019-03-03T01:27:46.534Z,13.62
2019-03-03T01:30:12.944Z,10.72
2019-03-03T01:32:39.141Z,12.55
2019-03-03T01:35:07.609Z,8.75
2019-03-03T01:37:33.821Z,10.20
2019-03-03T01:40:00.996Z,8.33
2019-03-03T01:42:27.257Z,9.45
2019-03-03T01:44:53.435Z,8.60
2019-03-03T01:47:19.612Z,7.53
2019-03-03T01:49:45.818Z,8.48
2019-03-03T01:52:12.069Z,10.40
2019-03-03T01:54:38.252Z,10.45
2019-03-03T01:57:04.431Z,9.13
2019-03-03T01:59:30.613Z,9.43
2019-03-03T02:01:56.773Z,6.70
2019-03-03T02:04:22.952Z,7.42
2019-03-03T02:06:50.415Z,8.60
2019-03-03T02:09:16.821Z,7.42
2019-03-03T02:11:43.116Z,9.78
2019-03-03T02:14:09.361Z,6.95
2019-03-03T02:16:35.513Z,7.35
2019-03-03T02:19:01.906Z,9.25
2019-03-03T02:21:28.062Z,10.03
2019-03-03T02:23:54.242Z,9.08
2019-03-03T02:26:20.396Z,9.18
2019-03-03T02:28:46.597Z,7.75
2019-03-03T02:31:12.952Z,8.23
2019-03-03T02:33:39.122Z,7.78
2019-03-03T02:36:05.293Z,6.97
2019-03-03T02:38:31.484Z,7.20
2019-03-03T02:40:57.973Z,6.85
2019-03-03T02:43:24.204Z,5.50
2019-03-03T02:45:50.364Z,7.62
2019-03-03T02:48:16.525Z,5.55
2019-03-03T02:50:42.802Z,6.45
2019-03-03T02:53:09.022Z,6.83
2019-03-03T02:55:35.349Z,6.37
2019-03-03T02:58:02.417Z,6.47
2019-03-03T03:00:28.613Z,6.25
2019-03-03T03:02:58.175Z,5.53
2019-03-03T03:05:27.606Z,6.15
2019-03-03T03:07:55.783Z,6.60
2019-03-03T03:10:39.153Z,7.60
2019-03-03T03:13:19.391Z,6.90
2019-03-03T03:15:49.469Z,6.12
2019-03-03T03:18:21.365Z,5.97
2019-03-03T03:20:49.523Z,6.62
2019-03-03T03:23:17.625Z,5.80
2019-03-03T03:25:45.717Z,6.80
2019-03-03T03:28:19.951Z,6.37
2019-03-03T03:30:53.824Z,6.40
2019-03-03T03:33:21.924Z,6.05
2019-03-03T03:35:56.055Z,6.72
2019-03-03T03:38:24.565Z,7.35
2019-03-03T03:40:52.651Z,5.28
2019-03-03T03:43:37.766Z,5.05
2019-03-03T03:46:21.026Z,9.78
2019-03-03T03:48:49.433Z,7.22
2019-03-03T03:51:29.388Z,7.22
2019-03-03T03:54:34.440Z,7.15
2019-03-03T03:57:02.961Z,6.45
2019-03-03T03:59:31.055Z,7.75
2019-03-03T04:02:15.518Z,5.12
2019-03-03T04:04:43.791Z,6.12
2019-03-03T04:07:14.655Z,6.85
2019-03-03T04:09:42.763Z,6.85
2019-03-03T04:12:10.846Z,6.03
2019-03-03T04:14:38.946Z,7.53
2019-03-03T04:17:07.125Z,5.85
2019-03-03T04:19:41.484Z,4.58
2019-03-03T04:22:25.873Z,6.80
2019-03-03T04:24:53.952Z,6.10
2019-03-03T04:27:22.032Z,6.42
2019-03-03T04:29:50.109Z,5.90
2019-03-03T04:32:20.955Z,7.85
2019-03-03T04:34:51.812Z,6.87
2019-03-03T04:37:19.872Z,6.17
2019-03-03T04:39:50.478Z,8.35
2019-03-03T04:42:24.427Z,8.03
2019-03-03T04:44:58.513Z,7.33
2019-03-03T04:47:43.199Z,5.50
2019-03-03T04:50:14.047Z,5.55
2019-03-03T04:52:47.797Z,6.95
2019-03-03T04:55:15.917Z,7.40
2019-03-03T04:58:01.402Z,6.33
2019-03-03T05:00:44.680Z,6.15
2019-03-03T05:03:27.585Z,8.88
2019-03-03T05:05:59.733Z,5.45
2019-03-03T05:08:30.624Z,9.08
2019-03-03T05:11:01.493Z,6.00
2019-03-03T05:13:29.577Z,7.30
2019-03-03T05:16:06.462Z,6.83
2019-03-03T05:18:34.533Z,6.00
2019-03-03T05:21:00.694Z,5.72
2019-03-03T05:23:26.996Z,6.85
2019-03-03T05:25:53.159Z,6.45
2019-03-03T05:28:19.376Z,5.15
2019-03-03T05:30:45.604Z,6.05
2019-03-03T05:33:11.793Z,5.12
2019-03-03T05:35:38.963Z,5.67
2019-03-03T05:38:05.134Z,7.35
2019-03-03T05:40:31.328Z,4.35
2019-03-03T05:42:57.515Z,4.22
2019-03-03T05:45:23.697Z,6.92
2019-03-03T05:47:49.958Z,5.45
2019-03-03T05:50:16.305Z,5.42
2019-03-03T05:52:42.808Z,4.35
2019-03-03T05:55:09.115Z,5.20
2019-03-03T05:57:35.300Z,6.10
2019-03-03T06:00:02.423Z,4.03
2019-03-03T06:02:30.900Z,6.25
2019-03-03T06:04:57.125Z,6.55
2019-03-03T06:07:23.340Z,3.77
2019-03-03T06:09:49.574Z,5.17
2019-03-03T06:12:15.753Z,5.47
2019-03-03T06:14:41.943Z,5.35
2019-03-03T06:17:08.171Z,6.05
2019-03-03T06:19:34.394Z,6.67
2019-03-03T06:22:00.952Z,5.45
2019-03-03T06:24:27.133Z,5.37
2019-03-03T06:26:53.292Z,5.40
2019-03-03T06:29:19.533Z,5.37
2019-03-03T06:31:45.722Z,6.08
2019-03-03T06:34:12.010Z,4.65
2019-03-03T06:36:38.184Z,5.87
2019-03-03T06:39:05.862Z,5.33
2019-03-03T06:41:32.998Z,7.03
2019-03-03T06:43:59.201Z,7.37
2019-03-03T06:46:25.590Z,4.90
2019-03-03T06:48:52.035Z,4.35
2019-03-03T06:51:18.200Z,6.58
2019-03-03T06:53:44.390Z,7.05
2019-03-03T06:56:10.600Z,5.62
2019-03-03T06:58:36.756Z,4.83
2019-03-03T07:01:02.942Z,6.08
2019-03-03T07:03:29.320Z,8.15
2019-03-03T07:05:55.700Z,4.90
2019-03-03T07:08:22.033Z,3.83
2019-03-03T07:10:48.444Z,4.40
2019-03-03T07:13:14.718Z,6.35
2019-03-03T07:15:40.888Z,5.47
2019-03-03T07:18:07.081Z,4.78
2019-03-03T07:20:33.286Z,4.35
2019-03-03T07:22:59.485Z,5.22
2019-03-03T07:25:25.912Z,3.70
2019-03-03T07:27:52.124Z,3.35
2019-03-03T07:30:18.322Z,4.53
2019-03-03T07:33:04.703Z,6.12
2019-03-03T07:35:30.908Z,4.10
2019-03-03T07:37:57.220Z,4.22
2019-03-03T07:40:23.401Z,3.98
2019-03-03T07:42:49.838Z,3.10
2019-03-03T07:45:16.128Z,6.03
2019-03-03T07:47:42.301Z,5.03
2019-03-03T07:50:08.603Z,4.62
2019-03-03T07:52:34.794Z,2.95
2019-03-03T07:55:00.964Z,6.97
2019-03-03T07:57:27.135Z,4.08
2019-03-03T07:59:53.316Z,3.22
2019-03-03T08:02:19.496Z,4.03
2019-03-03T08:04:45.681Z,6.05
2019-03-03T08:07:11.871Z,4.12
2019-03-03T08:09:38.078Z,4.70
2019-03-03T08:12:04.258Z,2.87
2019-03-03T08:14:32.462Z,3.27
2019-03-03T08:16:58.926Z,3.55
2019-03-03T08:19:25.255Z,2.22
2019-03-03T08:21:51.761Z,3.33
2019-03-03T08:24:17.981Z,3.67
2019-03-03T08:26:44.177Z,3.75
2019-03-03T08:29:10.405Z,6.00
2019-03-03T08:31:36.591Z,6.20
2019-03-03T08:34:02.757Z,4.35
2019-03-03T08:36:29.084Z,6.72
2019-03-03T08:39:08.327Z,4.78
2019-03-03T08:41:36.525Z,3.40
2019-03-03T08:44:04.821Z,4.50
2019-03-03T08:46:32.908Z,3.58
2019-03-03T08:49:03.765Z,3.10
2019-03-03T08:51:37.431Z,6.78
2019-03-03T08:54:20.352Z,4.92
2019-03-03T08:56:51.208Z,3.50
2019-03-03T08:59:36.252Z,5.95
2019-03-03T09:02:04.550Z,3.00
2019-03-03T09:04:49.556Z,5.25
2019-03-03T09:07:20.424Z,3.60
2019-03-03T09:09:57.391Z,3.40
2019-03-03T09:12:34.700Z,3.15
2019-03-03T09:15:19.559Z,3.45
2019-03-03T09:17:47.624Z,2.67
2019-03-03T09:20:24.688Z,2.55
2019-03-03T09:22:52.756Z,4.72
2019-03-03T09:25:35.678Z,4.17
2019-03-03T09:28:09.604Z,4.60
2019-03-03T09:30:54.683Z,2.83
2019-03-03T09:33:39.570Z,3.15
2019-03-03T09:36:24.387Z,3.92
2019-03-03T09:38:58.497Z,3.02
2019-03-03T09:41:29.613Z,4.78
2019-03-03T09:43:57.709Z,3.45
2019-03-03T09:46:31.493Z,4.05
2019-03-03T09:48:59.569Z,4.78
2019-03-03T09:51:35.199Z,3.45
2019-03-03T09:54:21.444Z,3.70
2019-03-03T09:57:01.417Z,2.77
2019-03-03T09:59:35.568Z,3.55
2019-03-03T10:02:20.459Z,3.92
2019-03-03T10:04:48.559Z,2.95
2019-03-03T10:07:28.982Z,3.90
2019-03-03T10:10:05.939Z,1.80
2019-03-03T10:12:34.039Z,2.52
2019-03-03T10:15:07.789Z,3.05
2019-03-03T10:17:36.205Z,3.27
2019-03-03T10:20:16.128Z,3.05
2019-03-03T10:22:45.493Z,3.02
2019-03-03T10:25:31.929Z,3.35
2019-03-03T10:28:02.547Z,2.58
2019-03-03T10:30:31.711Z,2.55
2019-03-03T10:32:59.813Z,1.15
2019-03-03T10:35:44.815Z,2.17
2019-03-03T10:38:18.930Z,2.47
2019-03-03T10:40:53.022Z,2.80
2019-03-03T10:43:27.186Z,0.93
2019-03-03T10:46:11.920Z,4.05
2019-03-03T10:48:50.430Z,3.35
2019-03-03T10:51:21.573Z,2.87
2019-03-03T10:53:49.668Z,2.45
2019-03-03T10:56:23.808Z,2.42
2019-03-03T10:58:53.835Z,1.65
2019-03-03T11:01:21.942Z,3.27
2019-03-03T11:03:53.208Z,2.00
2019-03-03T11:06:36.747Z,1.07
2019-03-03T11:09:15.957Z,2.27
2019-03-03T11:11:46.542Z,1.37
2019-03-03T11:14:17.193Z,0.75
2019-03-03T11:16:51.601Z,2.20
2019-03-03T11:19:34.804Z,1.30
2019-03-03T11:22:05.685Z,2.08
2019-03-03T11:24:33.953Z,2.12
2019-03-03T11:27:18.950Z,2.45
2019-03-03T11:29:59.589Z,1.27
2019-03-03T11:32:36.520Z,0.98
2019-03-03T11:35:21.716Z,1.82
2019-03-03T11:38:02.308Z,1.82
2019-03-03T11:40:39.690Z,3.83
2019-03-03T11:43:14.162Z,0.98
2019-03-03T11:45:42.538Z,1.65
2019-03-03T11:48:27.126Z,4.47
2019-03-03T11:50:55.341Z,1.40
2019-03-03T11:53:33.416Z,3.75
2019-03-03T11:56:10.684Z,4.45
2019-03-03T11:58:48.181Z,3.42
2019-03-03T12:01:40.426Z,1.72
2019-03-03T12:04:24.093Z,2.95
2019-03-03T12:06:54.987Z,4.75
2019-03-03T12:09:23.218Z,3.80
2019-03-03T12:11:54.067Z,2.80
2019-03-03T12:14:38.651Z,2.47
2019-03-03T12:17:06.940Z,2.40
2019-03-03T12:19:51.961Z,2.35
2019-03-03T12:22:22.826Z,2.10
2019-03-03T12:24:59.849Z,2.35
2019-03-03T12:27:44.893Z,2.80
2019-03-03T12:30:12.972Z,1.50
2019-03-03T12:32:44.100Z,4.30
2019-03-03T12:35:18.275Z,2.67
2019-03-03T12:37:47.556Z,1.42
2019-03-03T12:40:21.629Z,3.15
2019-03-03T12:42:49.840Z,3.95
2019-03-03T12:45:17.940Z,2.52
2019-03-03T12:47:46.833Z,2.60
2019-03-03T12:50:32.163Z,2.60
2019-03-03T12:53:03.095Z,1.45
2019-03-03T12:55:31.166Z,1.20
2019-03-03T12:58:01.814Z,2.35
2019-03-03T13:00:32.388Z,2.87
2019-03-03T13:03:17.408Z,2.77
2019-03-03T13:06:02.145Z,3.98
2019-03-03T13:08:33.249Z,3.65
2019-03-03T13:11:01.399Z,3.05
2019-03-03T13:13:44.532Z,1.10
2019-03-03T13:16:30.824Z,3.67
2019-03-03T13:18:58.907Z,2.47
2019-03-03T13:21:49.025Z,1.77
2019-03-03T13:24:26.488Z,1.90
2019-03-03T13:27:06.693Z,1.20
2019-03-03T13:29:40.520Z,2.35
2019-03-03T13:32:25.620Z,1.72
2019-03-03T13:34:54.010Z,2.65
2019-03-03T13:37:31.189Z,3.12
2019-03-03T13:40:08.408Z,2.80
2019-03-03T13:42:54.710Z,4.03
2019-03-03T13:45:20.878Z,1.92
2019-03-03T13:47:47.101Z,3.02
2019-03-03T13:50:14.458Z,2.90
2019-03-03T13:52:40.664Z,4.55
2019-03-03T13:55:09.743Z,4.53
2019-03-03T13:57:37.157Z,2.67
2019-03-03T14:00:07.124Z,2.83
2019-03-03T14:02:33.712Z,1.80
2019-03-03T14:04:59.915Z,1.82
2019-03-03T14:07:26.109Z,3.33
2019-03-03T14:09:52.273Z,2.80
2019-03-03T14:12:18.445Z,3.45
2019-03-03T14:14:44.620Z,2.65
2019-03-03T14:17:10.840Z,3.37
2019-03-03T14:19:37.076Z,2.95
2019-03-03T14:22:03.324Z,1.75
2019-03-03T14:24:29.694Z,4.00
2019-03-03T14:26:56.052Z,1.75
2019-03-03T14:29:37.277Z,5.72
2019-03-03T14:32:08.165Z,1.37
2019-03-03T14:34:34.358Z,2.90
2019-03-03T14:37:00.537Z,1.65
2019-03-03T14:39:26.841Z,1.27
2019-03-03T14:41:53.033Z,2.10
2019-03-03T14:44:19.217Z,1.20
2019-03-03T14:46:45.393Z,4.17
2019-03-03T14:49:11.581Z,4.87
2019-03-03T14:51:37.790Z,2.67
2019-03-03T14:54:04.344Z,4.40
2019-03-03T14:56:30.544Z,2.92
2019-03-03T14:58:56.942Z,2.17
2019-03-03T15:01:23.464Z,1.75
2019-03-03T15:03:49.680Z,2.37
2019-03-03T15:06:24.166Z,1.10
2019-03-03T15:08:44.961Z,1.87
2019-03-03T15:11:12.285Z,1.62
2019-03-03T15:13:38.624Z,1.57
2019-03-03T15:16:04.814Z,2.00
2019-03-03T15:18:31.020Z,1.72
2019-03-03T15:20:57.196Z,1.50
2019-03-03T15:23:23.350Z,1.80
2019-03-03T15:25:49.579Z,1.65
2019-03-03T15:28:15.840Z,0.90
2019-03-03T15:30:42.035Z,2.12
2019-03-03T15:33:08.210Z,2.70
2019-03-03T15:35:34.384Z,2.12
2019-03-03T15:38:00.548Z,0.70
2019-03-03T15:40:27.523Z,0.88
2019-03-03T15:42:53.943Z,2.15
2019-03-03T15:45:24.861Z,2.62
2019-03-03T15:47:51.281Z,1.40
2019-03-03T15:50:19.672Z,0.50
2019-03-03T15:52:46.149Z,1.20
2019-03-03T15:55:23.100Z,0.98
2019-03-03T15:57:49.261Z,2.25
2019-03-03T16:00:17.840Z,0.62
2019-03-03T16:02:44.033Z,1.98
2019-03-03T16:05:10.725Z,1.12
2019-03-03T16:07:37.708Z,0.80
2019-03-03T16:10:07.693Z,1.30
2019-03-03T16:12:33.873Z,1.00
2019-03-03T16:15:00.166Z,1.47
2019-03-03T16:17:26.538Z,3.27
2019-03-03T16:19:52.737Z,1.92
2019-03-03T16:22:18.902Z,1.62
2019-03-03T16:24:45.087Z,0.90
2019-03-03T16:27:11.251Z,0.93
2019-03-03T16:29:37.469Z,2.85
2019-03-03T16:32:03.706Z,2.37
2019-03-03T16:34:29.874Z,1.55
2019-03-03T16:36:56.084Z,2.15
2019-03-03T16:39:22.292Z,0.85
2019-03-03T16:41:48.489Z,2.02
2019-03-03T16:44:15.676Z,1.00
2019-03-03T16:46:41.919Z,3.83
2019-03-03T16:49:08.188Z,0.72
2019-03-03T16:51:34.385Z,0.82
2019-03-03T16:54:00.547Z,1.22
2019-03-03T16:56:26.820Z,3.60
2019-03-03T16:58:53.042Z,3.35
2019-03-03T17:01:19.239Z,1.55
2019-03-03T17:03:45.760Z,1.17
2019-03-03T17:06:11.938Z,2.15
2019-03-03T17:08:38.114Z,2.98
2019-03-03T17:11:04.317Z,3.47
2019-03-03T17:13:30.486Z,2.45
2019-03-03T17:15:58.729Z,1.20
2019-03-03T17:18:24.804Z,1.52
2019-03-03T17:20:50.974Z,4.80
2019-03-03T17:23:17.301Z,2.62
2019-03-03T17:25:43.509Z,1.20
2019-03-03T17:28:10.747Z,2.17
2019-03-03T17:30:36.924Z,5.33
2019-03-03T17:33:03.096Z,4.15
2019-03-03T17:35:29.270Z,1.75
2019-03-03T17:37:56.664Z,2.62
2019-03-03T17:40:24.477Z,2.17
2019-03-03T17:42:50.759Z,1.00
2019-03-03T17:45:18.660Z,2.12
2019-03-03T17:47:45.096Z,1.65
2019-03-03T17:50:20.216Z,1.42
2019-03-03T17:52:46.406Z,3.52
2019-03-03T17:55:14.183Z,4.42
2019-03-03T17:57:44.879Z,1.05
2019-03-03T18:00:17.559Z,2.50
2019-03-03T18:02:44.005Z,1.10
2019-03-03T18:05:10.268Z,1.50
2019-03-03T18:07:36.496Z,1.75
2019-03-03T18:10:05.609Z,1.05
2019-03-03T18:12:32.100Z,1.82
2019-03-03T18:15:00.340Z,1.17
2019-03-03T18:17:26.637Z,3.52
2019-03-03T18:19:52.961Z,2.50
2019-03-03T18:22:19.213Z,1.65
2019-03-03T18:24:45.409Z,3.12
2019-03-03T18:27:11.587Z,4.22
2019-03-03T18:29:37.764Z,1.98
2019-03-03T18:32:04.321Z,3.75
2019-03-03T18:34:30.585Z,3.10
2019-03-03T18:36:56.905Z,2.80
2019-03-03T18:39:23.109Z,3.27
2019-03-03T18:41:49.406Z,2.65
2019-03-03T18:44:15.874Z,4.62
2019-03-03T18:46:42.036Z,2.05
2019-03-03T18:49:08.517Z,3.72
2019-03-03T18:51:34.825Z,3.42
2019-03-03T18:54:01.012Z,2.62
2019-03-03T18:56:27.244Z,1.60
2019-03-03T18:58:53.581Z,3.83
2019-03-03T19:01:19.833Z,2.90
2019-03-03T19:03:46.080Z,1.90
2019-03-03T19:06:12.277Z,1.62
2019-03-03T19:08:38.499Z,2.05
2019-03-03T19:11:04.657Z,2.45
2019-03-03T19:13:30.865Z,1.37
2019-03-03T19:15:57.153Z,3.02
2019-03-03T19:18:23.360Z,3.60
2019-03-03T19:20:49.608Z,4.67
2019-03-03T19:23:15.797Z,3.55
2019-03-03T19:25:41.962Z,4.10
2019-03-03T19:28:08.168Z,2.75
2019-03-03T19:30:34.744Z,5.28
2019-03-03T19:33:25.631Z,3.27
2019-03-03T19:35:51.888Z,3.58
2019-03-03T19:38:18.376Z,2.67
2019-03-03T19:40:44.595Z,2.80
2019-03-03T19:43:10.996Z,5.33
2019-03-03T19:45:39.887Z,3.55
2019-03-03T19:48:06.519Z,2.67
2019-03-03T19:50:34.108Z,4.87
2019-03-03T19:53:00.288Z,4.85
2019-03-03T19:55:26.713Z,3.08
2019-03-03T19:57:52.890Z,2.42
2019-03-03T20:00:35.352Z,2.87
2019-03-03T20:02:59.852Z,1.98
2019-03-03T20:05:26.066Z,2.22
2019-03-03T20:07:52.267Z,4.30
2019-03-03T20:10:18.556Z,4.87
2019-03-03T20:12:44.736Z,3.20
2019-03-03T20:15:11.148Z,2.45
2019-03-03T20:17:39.440Z,3.72
2019-03-03T20:20:09.222Z,4.15
2019-03-03T20:22:37.533Z,2.75
2019-03-03T20:25:05.550Z,2.65
2019-03-03T20:27:33.229Z,3.55
2019-03-03T20:30:00.443Z,3.10
2019-03-03T20:32:26.756Z,4.05
2019-03-03T20:34:53.124Z,2.60
2019-03-03T20:37:19.338Z,1.67
2019-03-03T20:39:45.548Z,2.62
2019-03-03T20:42:13.620Z,2.62
2019-03-03T20:44:40.188Z,3.55
2019-03-03T20:47:06.525Z,3.60
2019-03-03T20:49:32.713Z,7.40
2019-03-03T20:51:58.902Z,5.97
2019-03-03T20:54:25.407Z,5.53
2019-03-03T20:56:51.584Z,2.70
2019-03-03T20:59:17.784Z,3.55
2019-03-03T21:01:43.952Z,2.90
2019-03-03T21:04:11.260Z,1.75
2019-03-03T21:06:37.619Z,2.45
2019-03-03T21:09:04.580Z,3.27
2019-03-03T21:11:32.658Z,4.40
2019-03-03T21:13:58.851Z,3.98
2019-03-03T21:16:25.041Z,2.98
2019-03-03T21:18:51.243Z,3.77
2019-03-03T21:21:17.420Z,5.92
2019-03-03T21:23:43.617Z,9.73
2019-03-03T21:26:09.794Z,6.87
2019-03-03T21:28:36.012Z,8.08
2019-03-03T21:31:03.394Z,6.55
2019-03-03T21:33:29.619Z,5.50
2019-03-03T21:35:55.805Z,6.33
2019-03-03T21:38:22.008Z,5.60
2019-03-03T21:40:48.209Z,5.25
2019-03-03T21:43:14.371Z,6.35
2019-03-03T21:45:40.564Z,3.00
2019-03-03T21:48:06.765Z,4.03
2019-03-03T21:50:32.932Z,2.52
2019-03-03T21:52:59.104Z,2.12
2019-03-03T21:55:25.600Z,2.12
2019-03-03T21:57:51.765Z,3.15
2019-03-03T22:00:29.946Z,2.10
2019-03-03T22:02:56.309Z,2.40
2019-03-03T22:05:24.534Z,2.58
2019-03-03T22:07:50.800Z,3.75
2019-03-03T22:10:17.208Z,2.22
2019-03-03T22:12:43.400Z,1.62
2019-03-03T22:15:31.385Z,2.47
2019-03-03T22:17:57.588Z,3.12
2019-03-03T22:20:23.753Z,4.90
2019-03-03T22:22:49.944Z,2.62
2019-03-03T22:25:16.100Z,8.30
2019-03-03T22:27:42.320Z,6.40
2019-03-03T22:30:15.900Z,6.42
2019-03-03T22:35:09.421Z,7.10
2019-03-03T22:37:35.584Z,3.42
2019-03-03T22:40:02.853Z,3.17
2019-03-03T22:42:30.024Z,2.12
2019-03-03T22:44:56.199Z,1.85
2019-03-03T22:47:22.401Z,1.92
2019-03-03T22:49:48.563Z,1.85
2019-03-03T22:52:14.747Z,1.80
2019-03-03T22:54:41.243Z,4.95
2019-03-03T22:57:07.490Z,1.98
2019-03-03T22:59:33.709Z,3.83
2019-03-03T23:01:59.908Z,4.97
2019-03-03T23:04:51.236Z,1.77
2019-03-03T23:07:22.326Z,1.27
2019-03-03T23:10:15.219Z,1.75
2019-03-03T23:12:48.036Z,1.80
2019-03-03T23:15:36.775Z,1.65
2019-03-03T23:18:26.720Z,1.72
2019-03-03T23:20:59.499Z,2.58
2019-03-03T23:23:29.498Z,1.98
2019-03-03T23:25:55.681Z,3.70
2019-03-03T23:28:22.045Z,1.67
2019-03-03T23:30:48.932Z,2.05
2019-03-03T23:33:16.304Z,2.12
2019-03-03T23:35:42.484Z,1.80
2019-03-03T23:38:08.644Z,1.32
2019-03-03T23:40:34.854Z,1.57
2019-03-03T23:43:01.021Z,1.52
2019-03-03T23:45:27.360Z,1.30
2019-03-03T23:47:53.520Z,2.02
2019-03-03T23:50:19.722Z,1.65
2019-03-03T23:52:45.901Z,2.80
2019-03-03T23:55:12.324Z,1.67
2019-03-03T23:57:38.500Z,1.62
